Pearcot, Washington
Current Conditions -  °F | °C
As of 3:55 PM on Sunday 21 Dec 2014 (Local Time) from KEAT Reporting Station
Broken Clouds Broken Clouds  
Wind Chill: 45°   Ceiling: 9500
Heat Index: 49°   Visibility: 10mi
Dew Point: 37°   Wind: 10mph
Humidity: 64%   Direction: 330°NNW
Pressure: 29.92"   Gusts: NA
Location:  47.3635°N, 120.348°W
Report Text: KEAT 212355Z AUTO 33009KT 10SM BKN095 09/03 A2992 RMK AO2 SLP137 60003 T00940028 10111 20056 53016
Loading
Personal Weather Stations






























Interactive Weather Map New forecast layout! Learn more

10-Day Weather Forecast

Advertisements
Track Severe Weather on mobile